Aérodrome :
LOGIN :

S'inscrire | Disclaimer

   EN    FR    IT 

 










Légende :    VFR   VFR Marginal   IFR   IFR Intensif   IFR Très Intensif
Visi : 
Plafond : 
>= 8 km
>= 3000ft
5 à 8 km
1000 à 3000 ft
1500m à 5 km
500 à 1000 ft
800 à 1500m
200 à 500 ft
< 800m
< 200 ft
Symboles :   Orages  Brouillard  Fortes neiges  Fortes précipitations  Vent > 20 kt
SIGMETs :   Divers  Orages  Givrage  Turbulence  Onde Orograph.  Cendres Volcan.






- Altitude de l'aérodrome : 287 ft


LFRL - Lanveoc Poulmic

DERNIER METAR :
  • 140830Z AUTO 33006KT 290V010 9999 FEW024/// BKN140/// BKN170/// ///CB 06/04 Q0994 TEMPO 3000 SHRAGS

METARs EXPIRÉS :
  • 140800Z AUTO 00000KT 9999 BKN036/// BKN058/// BKN220/// ///TCU 05/02 Q0994 TEMPO 3000 SHRAGS BKN018CB
  • 140730Z AUTO 30012KT 280V350 7000 -RA FEW011/// SCT037/// BKN052/// ///TCU 06/03 Q0993 TEMPO 3000 SHRAGS BKN018CB
  • 140700Z AUTO 27007KT 9999 FEW034/// SCT054/// ///TCU 06/02 Q0993 TEMPO 3000 SHRAGS BKN018CB
  • 140630Z AUTO 25006KT 9999 FEW040 SCT058 BKN076 06/01 Q0993 TEMPO 3000 SHRAGS BKN018CB
  • 140600Z AUTO 24006KT 9999 FEW036 SCT120 BKN240 06/02 Q0992 TEMPO 3000 SHRAGS BKN018CB

TAF TAF LFRL
Valide du 14 à 06h jusqu'au 15 à 06h UTC


140500Z 1406/1506 25008KT 9999 SCT030TCU
TEMPO 1406/1506 3000 SHRAGS BKN018CB
BECMG 1416/1418 35010KT



MET'MAP, la Météo Aéronautique d'un coup d'oeil ! - Copyright ORBIFLY Décembre 2007 - Disclaimer

ORBIFLY MET'MAP TEAM :

Programmation & Développement : Alexandra Zaïnal
Conception & Développement : Baudouin d'Aumeries
Co-Programmation & Développement : Marc-Olivier Méhu
Soutien technique & logistique : Manuel Goepfert

Contact : metmap@orbifly.com




SOURCES & CREDITS :

   NOAA